createdAt,value
2019-02-21T00:02:24.212Z,98021.17
2019-02-21T00:04:55.058Z,98021.50
2019-02-21T00:07:27.064Z,98017.63
2019-02-21T00:10:13.220Z,98018.78
2019-02-21T00:12:43.910Z,98024.77
2019-02-21T00:15:15.999Z,98025.59
2019-02-21T00:17:46.724Z,98023.39
2019-02-21T00:20:18.410Z,98022.42
2019-02-21T00:22:50.136Z,98024.42
2019-02-21T00:25:28.505Z,98027.98
2019-02-21T00:27:59.940Z,98030.42
2019-02-21T00:30:35.234Z,98029.81
2019-02-21T00:33:04.518Z,98032.09
2019-02-21T00:35:36.243Z,98036.01
2019-02-21T00:38:07.559Z,98028.61
2019-02-21T00:40:42.814Z,98026.05
2019-02-21T00:43:14.559Z,98032.19
2019-02-21T00:45:45.981Z,98031.73
2019-02-21T00:48:17.378Z,98039.63
2019-02-21T00:50:48.692Z,98035.95
2019-02-21T00:53:20.357Z,98039.18
2019-02-21T00:55:52.173Z,98039.20
2019-02-21T00:58:24.192Z,98042.92
2019-02-21T01:00:57.712Z,98047.58
2019-02-21T01:03:28.647Z,98051.28
2019-02-21T01:06:00.616Z,98053.23
2019-02-21T01:08:42.740Z,98053.27
2019-02-21T01:11:14.039Z,98053.58
2019-02-21T01:13:45.894Z,98055.02
2019-02-21T01:16:16.648Z,98053.75
2019-02-21T01:18:47.960Z,98047.34
2019-02-21T01:21:19.336Z,98057.03
2019-02-21T01:23:50.373Z,98057.36
2019-02-21T01:26:21.679Z,98051.72
2019-02-21T01:28:58.066Z,98062.02
2019-02-21T01:31:28.989Z,98056.23
2019-02-21T01:34:00.702Z,98064.13
2019-02-21T01:36:32.521Z,98065.88
2019-02-21T01:39:05.212Z,98066.21
2019-02-21T01:41:35.815Z,98074.11
2019-02-21T01:44:06.513Z,98070.88
2019-02-21T01:46:37.934Z,98069.92
2019-02-21T01:49:08.592Z,98065.59
2019-02-21T01:52:01.105Z,98064.94
2019-02-21T01:54:32.996Z,98062.70
2019-02-21T01:57:03.589Z,98064.01
2019-02-21T01:59:34.943Z,98066.91
2019-02-21T03:01:53.898Z,98053.21
2019-02-21T03:04:27.197Z,98054.64
2019-02-21T03:07:09.694Z,98050.00
2019-02-21T03:09:41.187Z,98053.36
2019-02-21T03:12:12.732Z,98057.22
2019-02-21T03:14:44.402Z,98059.66
2019-02-21T03:17:16.156Z,98057.87
2019-02-21T03:19:47.571Z,98060.12
2019-02-21T03:22:19.242Z,98059.50
2019-02-21T03:24:49.942Z,98066.88
2019-02-21T03:27:21.302Z,98070.23
2019-02-21T03:29:54.706Z,98069.76
2019-02-21T03:32:26.468Z,98072.84
2019-02-21T03:34:56.883Z,98077.16
2019-02-21T03:37:28.639Z,98078.14
2019-02-21T03:39:59.215Z,98082.83
2019-02-21T03:42:30.556Z,98086.82
2019-02-21T03:45:01.965Z,98088.28
2019-02-21T03:47:33.599Z,98093.12
2019-02-21T03:50:41.894Z,98096.78
2019-02-21T03:53:13.538Z,98096.14
2019-02-21T03:55:44.528Z,98096.74
2019-02-21T03:58:15.901Z,98099.31
2019-02-21T04:00:47.029Z,98095.27
2019-02-21T04:03:18.209Z,98100.05
2019-02-21T04:05:49.197Z,98093.47
2019-02-21T04:08:20.661Z,98099.25
2019-02-21T04:11:04.182Z,98101.33
2019-02-21T04:13:35.953Z,98106.61
2019-02-21T04:16:07.394Z,98110.80
2019-02-21T04:18:38.827Z,98109.33
2019-02-21T04:21:16.942Z,98114.80
2019-02-21T04:23:47.999Z,98113.48
2019-02-21T04:26:19.652Z,98111.26
2019-02-21T04:28:51.652Z,98114.48
2019-02-21T04:31:22.919Z,98114.80
2019-02-21T04:34:09.490Z,98106.58
2019-02-21T04:36:41.036Z,98114.25
2019-02-21T04:39:12.481Z,98116.98
2019-02-21T04:41:43.926Z,98121.36
2019-02-21T04:44:15.356Z,98120.43
2019-02-21T04:46:46.748Z,98117.70
2019-02-21T04:49:18.018Z,98119.14
2019-02-21T04:52:02.489Z,98120.53
2019-02-21T04:54:34.078Z,98122.28
2019-02-21T04:57:07.616Z,98121.95
2019-02-21T04:59:40.560Z,98127.08
2019-02-21T05:02:12.504Z,98127.23
2019-02-21T05:04:43.922Z,98120.33
2019-02-21T05:07:15.929Z,98123.39
2019-02-21T05:09:57.538Z,98120.31
2019-02-21T05:12:20.185Z,98119.23
2019-02-21T05:14:51.531Z,98120.38
2019-02-21T05:17:23.159Z,98118.17
2019-02-21T05:19:54.741Z,98119.16
2019-02-21T05:22:26.435Z,98117.91
2019-02-21T05:24:57.768Z,98125.16
2019-02-21T05:27:35.623Z,98127.91
2019-02-21T05:30:08.889Z,98122.80
2019-02-21T05:33:17.833Z,98125.39
2019-02-21T05:36:06.536Z,98126.36
2019-02-21T05:39:02.023Z,98125.72
2019-02-21T05:41:55.004Z,98127.48
2019-02-21T05:44:33.821Z,98132.94
2019-02-21T05:47:16.719Z,98126.34
2019-02-21T05:50:02.724Z,98129.58
2019-02-21T05:52:55.971Z,98131.51
2019-02-21T05:55:38.240Z,98132.30
2019-02-21T05:58:19.266Z,98132.78
2019-02-21T06:01:18.648Z,98141.94
2019-02-21T06:03:58.404Z,98136.58
2019-02-21T06:07:19.021Z,98138.95
2019-02-21T06:09:58.426Z,98148.42
2019-02-21T06:12:50.030Z,98152.76
2019-02-21T06:15:49.814Z,98156.25
2019-02-21T06:18:40.597Z,98157.83
2019-02-21T06:21:39.518Z,98160.39
2019-02-21T06:24:20.135Z,98163.73
2019-02-21T06:27:06.045Z,98166.77
2019-02-21T06:29:44.147Z,98174.59
2019-02-21T06:32:24.503Z,98168.45
2019-02-21T06:34:55.255Z,98172.77
2019-02-21T06:37:26.777Z,98175.48
2019-02-21T06:39:57.872Z,98178.39
2019-02-21T06:42:28.565Z,98177.77
2019-02-21T06:45:00.625Z,98184.84
2019-02-21T06:47:31.658Z,98181.35
2019-02-21T06:50:48.526Z,98186.38
2019-02-21T06:53:19.722Z,98187.41
2019-02-21T06:55:51.149Z,98186.80
2019-02-21T06:58:21.865Z,98191.70
2019-02-21T07:00:53.266Z,98196.45
2019-02-21T07:03:55.099Z,98197.82
2019-02-21T07:06:32.044Z,98189.80
2019-02-21T07:09:00.059Z,98192.64
2019-02-21T07:11:31.100Z,98198.53
2019-02-21T07:14:02.244Z,98193.10
2019-02-21T07:16:33.376Z,98188.32
2019-02-21T07:19:05.036Z,98193.92
2019-02-21T07:22:31.890Z,98196.59
2019-02-21T07:25:10.306Z,98198.09
2019-02-21T07:27:42.082Z,98202.47
2019-02-21T07:30:20.207Z,98205.34
2019-02-21T07:32:45.863Z,98208.62
2019-02-21T07:35:17.482Z,98199.75
2019-02-21T07:37:48.247Z,98201.50
2019-02-21T07:40:20.477Z,98205.09
2019-02-21T07:42:51.704Z,98205.28
2019-02-21T07:45:47.305Z,98209.05
2019-02-21T07:48:18.701Z,98205.22
2019-02-21T07:50:49.770Z,98210.36
2019-02-21T07:53:20.406Z,98209.69
2019-02-21T07:55:51.470Z,98209.41
2019-02-21T07:58:22.807Z,98203.80
2019-02-21T08:00:57.551Z,98201.37
2019-02-21T08:03:35.745Z,98202.65
2019-02-21T08:06:02.185Z,98200.25
2019-02-21T08:08:52.588Z,98206.19
2019-02-21T08:11:24.378Z,98208.06
2019-02-21T08:13:55.302Z,98211.34
2019-02-21T08:16:26.639Z,98206.10
2019-02-21T08:18:57.410Z,98219.42
2019-02-21T08:21:29.368Z,98222.45
2019-02-21T08:24:00.382Z,98221.23
2019-02-21T08:26:32.066Z,98219.88
2019-02-21T08:29:05.972Z,98216.02
2019-02-21T08:31:37.411Z,98217.62
2019-02-21T08:34:13.009Z,98215.80
2019-02-21T08:36:44.013Z,98207.38
2019-02-21T08:39:14.682Z,98206.60
2019-02-21T08:41:45.348Z,98207.94
2019-02-21T08:44:16.209Z,98207.22
2019-02-21T08:46:47.627Z,98208.75
2019-02-21T08:49:19.355Z,98215.34
2019-02-21T08:51:50.507Z,98212.87
2019-02-21T08:54:21.546Z,98215.55
2019-02-21T08:56:53.615Z,98222.92
2019-02-21T08:59:24.898Z,98217.25
2019-02-21T09:01:56.200Z,98224.09
2019-02-21T09:04:28.048Z,98227.25
2019-02-21T09:07:29.640Z,98229.34
2019-02-21T09:10:00.658Z,98228.77
2019-02-21T09:12:32.283Z,98226.29
2019-02-21T09:15:03.782Z,98229.80
2019-02-21T09:17:35.394Z,98230.52
2019-02-21T09:20:07.734Z,98230.56
2019-02-21T09:22:38.796Z,98228.55
2019-02-21T09:25:11.732Z,98225.06
2019-02-21T09:27:43.248Z,98235.67
2019-02-21T09:30:18.044Z,98236.66
2019-02-21T09:32:48.791Z,98233.41
2019-02-21T09:35:19.723Z,98242.13
2019-02-21T09:37:51.567Z,98237.70
2019-02-21T09:40:22.901Z,98235.77
2019-02-21T09:42:54.712Z,98229.78
2019-02-21T09:45:25.725Z,98233.78
2019-02-21T09:47:57.685Z,98233.42
2019-02-21T09:50:29.666Z,98233.05
2019-02-21T09:53:01.901Z,98231.38
2019-02-21T09:55:34.791Z,98232.70
2019-02-21T09:58:05.753Z,98237.70
2019-02-21T10:00:36.767Z,98239.07
2019-02-21T10:03:08.688Z,98238.78
2019-02-21T10:05:40.225Z,98228.42
2019-02-21T10:08:10.884Z,98225.84
2019-02-21T10:10:42.007Z,98226.67
2019-02-21T10:13:13.834Z,98229.73
2019-02-21T10:15:46.964Z,98229.13
2019-02-21T10:18:17.735Z,98229.59
2019-02-21T10:20:49.064Z,98225.90
2019-02-21T10:23:20.815Z,98222.55
2019-02-21T10:25:52.560Z,98218.81
2019-02-21T10:28:24.291Z,98214.16
2019-02-21T10:30:54.952Z,98218.52
2019-02-21T10:33:26.010Z,98210.11
2019-02-21T10:35:57.477Z,98205.06
2019-02-21T10:38:52.888Z,98207.37
2019-02-21T10:41:24.619Z,98197.85
2019-02-21T10:43:55.979Z,98197.63
2019-02-21T10:46:26.779Z,98191.25
2019-02-21T10:48:59.596Z,98196.76
2019-02-21T10:51:30.980Z,98197.05
2019-02-21T10:54:02.499Z,98184.98
2019-02-21T10:56:33.695Z,98182.88
2019-02-21T10:59:04.408Z,98174.88
2019-02-21T11:01:35.973Z,98166.77
2019-02-21T11:04:07.657Z,98163.95
2019-02-21T11:06:38.469Z,98160.66
2019-02-21T11:09:14.642Z,98155.50
2019-02-21T11:11:45.690Z,98154.42
2019-02-21T11:14:17.086Z,98148.50
2019-02-21T11:16:48.424Z,98140.30
2019-02-21T11:19:19.519Z,98146.12
2019-02-21T11:21:51.508Z,98137.86
2019-02-21T11:24:22.879Z,98141.36
2019-02-21T11:26:54.210Z,98143.35
2019-02-21T11:29:26.232Z,98146.61
2019-02-21T11:31:57.887Z,98137.04
2019-02-21T11:34:29.175Z,98131.90
2019-02-21T11:37:00.266Z,98123.92
2019-02-21T11:39:32.297Z,98113.69
2019-02-21T11:42:03.801Z,98116.10
2019-02-21T11:44:35.451Z,98117.13
2019-02-21T11:47:11.413Z,98113.30
2019-02-21T11:49:42.828Z,98106.41
2019-02-21T11:52:14.355Z,98103.05
2019-02-21T11:54:45.047Z,98098.67
2019-02-21T11:57:16.544Z,98098.38
2019-02-21T11:59:47.590Z,98100.58
2019-02-21T12:02:18.962Z,98097.05
2019-02-21T12:04:50.378Z,98098.66
2019-02-21T12:07:21.786Z,98099.38
2019-02-21T12:09:52.095Z,98092.02
2019-02-21T12:12:23.184Z,98092.86
2019-02-21T12:14:54.847Z,98096.28
2019-02-21T12:17:27.614Z,98090.55
2019-02-21T12:19:58.665Z,98091.36
2019-02-21T12:22:30.121Z,98085.66
2019-02-21T12:25:01.903Z,98086.06
2019-02-21T12:27:33.291Z,98081.82
2019-02-21T12:30:04.096Z,98088.09
2019-02-21T12:32:35.394Z,98083.22
2019-02-21T12:35:11.157Z,98077.03
2019-02-21T12:37:42.377Z,98076.49
2019-02-21T12:40:16.064Z,98071.61
2019-02-21T12:42:47.735Z,98067.64
2019-02-21T12:45:19.551Z,98067.30
2019-02-21T12:47:53.852Z,98059.49
2019-02-21T12:50:26.135Z,98064.96
2019-02-21T12:52:57.867Z,98062.88
2019-02-21T12:55:34.287Z,98066.50
2019-02-21T12:58:05.991Z,98068.56
2019-02-21T13:00:37.083Z,98070.00
2019-02-21T13:03:08.379Z,98068.06
2019-02-21T13:05:41.342Z,98067.16
2019-02-21T13:08:15.896Z,98065.39
2019-02-21T13:11:03.540Z,98060.81
2019-02-21T13:13:34.675Z,98056.63
2019-02-21T13:16:07.536Z,98056.97
2019-02-21T13:18:40.488Z,98058.22
2019-02-21T13:21:11.935Z,98055.08
2019-02-21T13:23:43.603Z,98053.14
2019-02-21T13:26:15.046Z,98045.84
2019-02-21T13:28:46.457Z,98046.11
2019-02-21T13:31:17.399Z,98046.00
2019-02-21T13:33:49.316Z,98047.72
2019-02-21T13:36:20.985Z,98038.47
2019-02-21T13:38:52.597Z,98039.45
2019-02-21T13:41:28.928Z,98033.73
2019-02-21T13:44:15.036Z,98034.11
2019-02-21T13:46:47.495Z,98033.77
2019-02-21T13:49:33.746Z,98036.65
2019-02-21T13:52:04.433Z,98036.41
2019-02-21T13:54:35.093Z,98035.72
2019-02-21T13:58:02.013Z,98035.63
2019-02-21T14:00:32.970Z,98030.67
2019-02-21T14:03:57.119Z,98022.85
2019-02-21T14:10:26.806Z,98016.11
2019-02-21T14:12:58.367Z,98015.18
2019-02-21T14:15:30.233Z,98013.60
2019-02-21T14:18:01.446Z,98010.73
2019-02-21T14:20:44.621Z,98016.36
2019-02-21T14:23:06.720Z,98017.61
2019-02-21T14:25:40.688Z,98017.30
2019-02-21T14:28:20.011Z,98013.45
2019-02-21T14:30:51.510Z,98009.53
2019-02-21T14:33:23.402Z,98018.34
2019-02-21T14:36:16.724Z,98013.35
2019-02-21T14:38:42.879Z,98017.48
2019-02-21T14:41:14.659Z,98018.45
2019-02-21T14:43:45.626Z,98010.66
2019-02-21T14:46:16.797Z,98006.78
2019-02-21T14:48:48.277Z,98013.17
2019-02-21T14:51:20.373Z,98002.83
2019-02-21T14:54:24.253Z,98001.77
2019-02-21T14:56:55.546Z,97998.45
2019-02-21T14:59:26.768Z,97995.36
2019-02-21T15:01:57.835Z,97993.25
2019-02-21T15:04:28.556Z,97998.19
2019-02-21T15:06:59.706Z,97998.82
2019-02-21T15:09:30.877Z,97994.22
2019-02-21T15:12:02.501Z,97992.80
2019-02-21T15:14:33.931Z,97998.97
2019-02-21T15:17:05.561Z,98003.37
2019-02-21T15:19:36.653Z,98003.47
2019-02-21T15:22:20.213Z,97996.37
2019-02-21T15:24:51.627Z,98001.02
2019-02-21T15:27:27.649Z,97996.92
2019-02-21T15:29:58.950Z,97996.42
2019-02-21T15:32:30.362Z,97995.67
2019-02-21T15:35:02.773Z,97992.01
2019-02-21T15:37:34.105Z,97993.06
2019-02-21T15:40:05.365Z,97994.68
2019-02-21T15:42:46.010Z,97997.94
2019-02-21T15:45:23.491Z,97993.20
2019-02-21T15:47:51.698Z,97990.25
2019-02-21T15:50:40.953Z,97990.58
2019-02-21T15:53:12.752Z,97994.19
2019-02-21T15:55:43.101Z,97992.79
2019-02-21T15:58:15.006Z,97999.33
2019-02-21T16:01:08.928Z,97997.21
2019-02-21T16:03:59.993Z,97997.45
2019-02-21T16:06:31.699Z,97998.29
2019-02-21T16:09:58.427Z,98002.77
2019-02-21T16:12:30.234Z,98009.28
2019-02-21T16:15:02.425Z,98005.22
2019-02-21T16:17:37.167Z,98009.47
2019-02-21T16:20:07.989Z,98022.26
2019-02-21T16:22:47.120Z,98016.38
2019-02-21T16:25:20.270Z,98022.14
2019-02-21T16:27:51.405Z,98023.98
2019-02-21T16:30:22.790Z,98024.27
2019-02-21T16:33:10.025Z,98028.45
2019-02-21T16:35:41.315Z,98028.84
2019-02-21T16:38:12.469Z,98037.84
2019-02-21T16:40:43.751Z,98037.41
2019-02-21T16:43:14.779Z,98034.13
2019-02-21T16:45:51.378Z,98038.66
2019-02-21T16:49:32.222Z,98046.48
2019-02-21T16:52:12.616Z,98049.11
2019-02-21T16:54:43.958Z,98050.06
2019-02-21T16:57:26.050Z,98040.02
2019-02-21T16:59:57.344Z,98043.95
2019-02-21T17:02:28.828Z,98048.70
2019-02-21T17:04:59.888Z,98050.36
2019-02-21T17:07:40.355Z,98056.48
2019-02-21T17:10:14.186Z,98060.98
2019-02-21T17:13:15.994Z,98061.14
2019-02-21T17:15:47.202Z,98072.98
2019-02-21T17:18:18.000Z,98079.57
2019-02-21T17:20:49.744Z,98083.14
2019-02-21T17:23:23.061Z,98079.13
2019-02-21T17:25:54.818Z,98087.69
2019-02-21T17:28:25.866Z,98092.60
2019-02-21T17:30:57.068Z,98099.31
2019-02-21T17:33:28.228Z,98103.33
2019-02-21T17:36:00.338Z,98103.87
2019-02-21T17:38:31.672Z,98110.36
2019-02-21T17:41:03.104Z,98107.09
2019-02-21T17:43:33.919Z,98112.29
2019-02-21T17:46:05.088Z,98112.55
2019-02-21T17:48:36.840Z,98112.98
2019-02-21T17:51:08.870Z,98114.02
2019-02-21T17:53:40.265Z,98115.96
2019-02-21T17:56:12.070Z,98116.38
2019-02-21T17:58:43.653Z,98122.33
2019-02-21T18:01:14.556Z,98130.63
2019-02-21T18:03:45.662Z,98132.11
2019-02-21T18:06:16.383Z,98131.33
2019-02-21T18:08:48.107Z,98133.86
2019-02-21T18:11:38.747Z,98135.13
2019-02-21T18:14:09.679Z,98138.97
2019-02-21T18:16:41.351Z,98144.80
2019-02-21T18:19:12.685Z,98154.51
2019-02-21T18:21:43.999Z,98155.09
2019-02-21T18:24:15.974Z,98154.83
2019-02-21T18:26:46.708Z,98151.83
2019-02-21T18:29:18.105Z,98160.52
2019-02-21T18:31:49.466Z,98160.65
2019-02-21T18:34:21.682Z,98164.33
2019-02-21T18:36:52.738Z,98158.63
2019-02-21T18:39:23.946Z,98157.56
2019-02-21T18:41:55.421Z,98167.39
2019-02-21T18:44:26.837Z,98163.14
2019-02-21T18:46:58.255Z,98163.91
2019-02-21T18:49:29.719Z,98168.11
2019-02-21T18:52:01.382Z,98170.60
2019-02-21T18:54:33.266Z,98169.92
2019-02-21T18:57:04.865Z,98172.11
2019-02-21T18:59:36.475Z,98175.19
2019-02-21T19:02:08.084Z,98181.59
2019-02-21T19:04:40.486Z,98178.89
2019-02-21T19:07:12.082Z,98189.58
2019-02-21T19:09:43.155Z,98185.31
2019-02-21T19:12:14.232Z,98184.94
2019-02-21T19:14:46.043Z,98183.30
2019-02-21T19:17:17.826Z,98182.78
2019-02-21T19:19:49.645Z,98181.64
2019-02-21T19:22:20.669Z,98185.08
2019-02-21T19:24:52.212Z,98188.78
2019-02-21T19:27:42.290Z,98188.59
2019-02-21T19:30:19.585Z,98194.68
2019-02-21T19:32:51.188Z,98206.58
2019-02-21T19:35:26.801Z,98209.27
2019-02-21T19:38:09.475Z,98207.34
2019-02-21T19:40:30.639Z,98206.93
2019-02-21T19:43:02.390Z,98204.91
2019-02-21T19:45:38.952Z,98207.84
2019-02-21T19:48:10.040Z,98208.44
2019-02-21T19:50:41.672Z,98204.13
2019-02-21T19:53:14.437Z,98205.25
2019-02-21T19:55:45.697Z,98211.39
2019-02-21T19:58:17.537Z,98207.69
2019-02-21T20:00:48.864Z,98215.86
2019-02-21T20:03:22.181Z,98219.38
2019-02-21T20:06:08.269Z,98218.03
2019-02-21T20:08:44.934Z,98219.28
2019-02-21T20:11:28.694Z,98227.38
2019-02-21T20:14:06.933Z,98226.64
2019-02-21T20:16:48.979Z,98228.06
2019-02-21T20:19:32.306Z,98228.06
2019-02-21T20:22:09.272Z,98236.41
2019-02-21T20:24:41.565Z,98233.97
2019-02-21T20:27:19.927Z,98233.73
2019-02-21T20:29:51.053Z,98238.00
2019-02-21T20:32:41.339Z,98247.37
2019-02-21T20:35:13.368Z,98252.37
2019-02-21T20:37:45.083Z,98254.56
2019-02-21T20:40:16.793Z,98253.94
2019-02-21T20:42:59.316Z,98264.34
2019-02-21T20:45:29.706Z,98263.81
2019-02-21T20:48:00.999Z,98255.02
2019-02-21T20:50:32.304Z,98256.02
2019-02-21T20:53:03.105Z,98249.01
2019-02-21T20:55:43.032Z,98256.22
2019-02-21T20:58:06.975Z,98259.87
2019-02-21T21:00:38.646Z,98260.56
2019-02-21T21:03:09.944Z,98258.47
2019-02-21T21:05:41.243Z,98265.56
2019-02-21T21:08:11.549Z,98267.52
2019-02-21T21:10:56.161Z,98261.93
2019-02-21T21:13:27.707Z,98259.17
2019-02-21T21:16:05.241Z,98260.80
2019-02-21T21:18:37.214Z,98264.08
2019-02-21T21:21:08.835Z,98267.00
2019-02-21T21:23:40.082Z,98271.66
2019-02-21T21:26:11.157Z,98273.42
2019-02-21T21:28:46.147Z,98276.96
2019-02-21T21:31:27.208Z,98279.35
2019-02-21T21:33:58.112Z,98279.03
2019-02-21T21:36:33.407Z,98276.08
2019-02-21T21:39:06.081Z,98279.61
2019-02-21T21:41:37.128Z,98280.77
2019-02-21T21:44:09.870Z,98281.35
2019-02-21T21:46:42.170Z,98296.09
2019-02-21T21:49:14.734Z,98292.86
2019-02-21T21:51:46.337Z,98301.09
2019-02-21T21:54:31.483Z,98295.38
2019-02-21T21:57:03.032Z,98302.28
2019-02-21T21:59:40.573Z,98304.50
2019-02-21T22:02:13.607Z,98308.98
2019-02-21T22:04:48.337Z,98308.78
2019-02-21T22:07:22.169Z,98311.23
2019-02-21T22:10:04.273Z,98312.48
2019-02-21T22:12:37.650Z,98313.86
2019-02-21T22:15:09.906Z,98310.59
2019-02-21T22:17:42.289Z,98310.02
2019-02-21T22:20:13.203Z,98307.94
2019-02-21T22:22:50.924Z,98315.69
2019-02-21T22:25:25.966Z,98312.16
2019-02-21T22:28:08.864Z,98309.75
2019-02-21T22:30:40.468Z,98306.17
2019-02-21T22:33:11.825Z,98307.63
2019-02-21T22:35:43.276Z,98305.81
2019-02-21T22:38:15.366Z,98310.66
2019-02-21T22:41:00.252Z,98312.47
2019-02-21T22:43:31.617Z,98312.13
2019-02-21T22:46:02.584Z,98309.72
2019-02-21T22:48:46.661Z,98314.44
2019-02-21T22:51:13.380Z,98311.22
2019-02-21T22:54:18.821Z,98312.87
2019-02-21T22:57:07.948Z,98324.11
2019-02-21T22:59:48.971Z,98331.84
2019-02-21T23:02:20.740Z,98325.64
2019-02-21T23:05:47.353Z,98329.48
2019-02-21T23:08:44.393Z,98327.97
2019-02-21T23:11:15.273Z,98336.69
2019-02-21T23:13:48.078Z,98342.44
2019-02-21T23:16:21.193Z,98336.06
2019-02-21T23:18:53.006Z,98335.93
2019-02-21T23:21:24.628Z,98333.59
2019-02-21T23:23:57.272Z,98336.02
2019-02-21T23:26:29.254Z,98337.34
2019-02-21T23:29:14.962Z,98334.93
2019-02-21T23:31:45.570Z,98340.48
2019-02-21T23:34:35.996Z,98341.61
2019-02-21T23:37:07.250Z,98337.02
2019-02-21T23:39:38.868Z,98340.83
2019-02-21T23:42:12.716Z,98344.73
2019-02-21T23:44:44.273Z,98340.77
2019-02-21T23:47:16.726Z,98333.41
2019-02-21T23:49:47.629Z,98331.56
2019-02-21T23:52:21.279Z,98333.09
2019-02-21T23:54:51.952Z,98333.56
2019-02-21T23:57:46.258Z,98336.78
